createdAt,value
2022-08-26T00:02:19.426Z,100941.59
2022-08-26T00:04:46.512Z,100942.41
2022-08-26T00:07:12.107Z,100938.81
2022-08-26T00:09:40.062Z,100947.97
2022-08-26T00:12:06.271Z,100947.97
2022-08-26T00:14:31.808Z,100956.34
2022-08-26T00:16:57.501Z,100956.66
2022-08-26T00:19:23.241Z,100952.72
2022-08-26T00:21:49.545Z,100954.69
2022-08-26T00:24:15.972Z,100965.00
2022-08-26T00:26:41.661Z,100965.84
2022-08-26T00:29:08.486Z,100973.38
2022-08-26T00:31:35.070Z,100979.75
2022-08-26T00:34:01.599Z,100984.50
2022-08-26T00:36:29.956Z,100978.59
2022-08-26T00:38:55.589Z,100974.19
2022-08-26T00:41:21.363Z,100981.72
2022-08-26T00:43:47.953Z,100984.50
2022-08-26T00:46:15.505Z,100984.50
2022-08-26T00:48:42.978Z,100993.69
2022-08-26T00:51:11.212Z,100992.88
2022-08-26T00:53:38.998Z,100987.28
2022-08-26T00:56:10.115Z,100984.50
2022-08-26T00:58:42.106Z,100989.25
2022-08-26T01:01:08.711Z,100996.47
2022-08-26T01:03:34.560Z,100991.22
2022-08-26T01:06:00.128Z,100995.66
2022-08-26T01:08:25.679Z,100994.81
2022-08-26T01:10:55.779Z,100984.50
2022-08-26T01:13:22.153Z,100986.47
2022-08-26T01:15:51.210Z,100994.00
2022-08-26T01:18:16.747Z,100998.44
2022-08-26T01:20:48.174Z,100995.97
2022-08-26T01:23:14.253Z,100997.63
2022-08-26T01:25:41.258Z,100989.25
2022-08-26T01:28:10.059Z,101000.41
2022-08-26T01:30:35.975Z,100998.75
2022-08-26T01:33:02.787Z,101002.38
2022-08-26T01:35:29.385Z,100994.00
2022-08-26T01:37:55.414Z,101010.72
2022-08-26T01:40:23.486Z,101010.72
2022-08-26T01:42:49.070Z,101008.75
2022-08-26T01:45:17.803Z,101017.09
2022-08-26T01:47:43.387Z,101012.69
2022-08-26T01:50:10.467Z,101011.84
2022-08-26T01:52:37.340Z,101025.75
2022-08-26T01:55:03.555Z,101027.44
2022-08-26T01:57:29.590Z,101030.22
2022-08-26T01:59:55.537Z,101033.00
2022-08-26T02:02:21.079Z,101025.75
2022-08-26T02:04:48.391Z,101022.97
2022-08-26T02:07:15.771Z,101016.28
2022-08-26T02:09:43.878Z,101035.78
2022-08-26T02:12:10.315Z,101039.69
2022-08-26T02:14:37.068Z,101031.31
2022-08-26T02:17:09.543Z,101039.69
2022-08-26T02:19:36.688Z,101042.47
2022-08-26T02:22:04.646Z,101038.84
2022-08-26T02:24:46.239Z,101042.47
2022-08-26T02:27:12.503Z,101050.81
2022-08-26T02:29:39.228Z,101048.03
2022-08-26T02:32:06.232Z,101048.88
2022-08-26T02:34:32.080Z,101050.00
2022-08-26T02:36:58.662Z,101050.81
2022-08-26T02:39:24.203Z,101051.97
2022-08-26T02:41:49.743Z,101049.19
2022-08-26T02:44:15.283Z,101049.19
2022-08-26T02:46:40.856Z,101046.41
2022-08-26T02:49:07.291Z,101052.78
2022-08-26T02:51:32.844Z,101051.97
2022-08-26T02:53:58.866Z,101057.53
2022-08-26T02:56:24.679Z,101053.94
2022-08-26T02:58:50.214Z,101053.94
2022-08-26T03:01:20.229Z,101049.19
2022-08-26T03:03:47.367Z,101049.19
2022-08-26T03:06:15.126Z,101044.75
2022-08-26T03:08:41.137Z,101055.56
2022-08-26T03:11:07.742Z,101051.97
2022-08-26T03:13:33.281Z,101054.75
2022-08-26T03:16:00.907Z,101049.19
2022-08-26T03:18:26.615Z,101057.53
2022-08-26T03:20:52.170Z,101053.94
2022-08-26T03:23:18.534Z,101055.91
2022-08-26T03:25:47.763Z,101049.19
2022-08-26T03:28:13.622Z,101050.31
2022-08-26T03:30:39.180Z,101051.16
2022-08-26T03:33:11.227Z,101053.94
2022-08-26T03:35:37.245Z,101043.94
2022-08-26T03:38:07.290Z,101053.94
2022-08-26T03:40:33.817Z,101053.94
2022-08-26T03:42:59.954Z,101054.75
2022-08-26T03:45:25.493Z,101053.94
2022-08-26T03:47:51.060Z,101059.50
2022-08-26T03:50:22.977Z,101057.84
2022-08-26T03:52:50.725Z,101052.28
2022-08-26T03:55:16.510Z,101055.91
2022-08-26T03:57:43.333Z,101064.25
2022-08-26T04:00:13.125Z,101056.72
2022-08-26T04:02:38.718Z,101055.06
2022-08-26T04:05:04.383Z,101058.69
2022-08-26T04:07:30.047Z,101062.28
2022-08-26T04:09:57.731Z,101052.28
2022-08-26T04:12:24.591Z,101066.22
2022-08-26T04:14:50.770Z,101055.06
2022-08-26T04:17:19.338Z,101057.03
2022-08-26T04:19:51.661Z,101064.56
2022-08-26T04:22:24.182Z,101068.19
2022-08-26T04:24:50.658Z,101057.84
2022-08-26T04:27:16.203Z,101061.47
2022-08-26T04:29:42.839Z,101057.84
2022-08-26T04:32:08.391Z,101057.84
2022-08-26T04:34:34.905Z,101056.22
2022-08-26T04:37:00.642Z,101055.06
2022-08-26T04:39:27.719Z,101065.41
2022-08-26T04:41:54.704Z,101056.22
2022-08-26T04:44:20.404Z,101064.56
2022-08-26T04:46:47.175Z,101070.97
2022-08-26T04:49:12.839Z,101060.66
2022-08-26T04:51:38.749Z,101061.78
2022-08-26T04:54:06.079Z,101071.47
2022-08-26T04:56:34.076Z,101071.78
2022-08-26T04:58:59.930Z,101078.16
2022-08-26T05:01:25.617Z,101073.41
2022-08-26T05:03:51.685Z,101072.59
2022-08-26T05:06:19.065Z,101075.38
2022-08-26T05:08:44.673Z,101074.56
2022-08-26T05:11:10.818Z,101075.72
2022-08-26T05:13:37.552Z,101084.88
2022-08-26T05:16:04.322Z,101082.41
2022-08-26T05:18:32.323Z,101079.31
2022-08-26T05:20:57.902Z,101077.69
2022-08-26T05:23:23.650Z,101088.81
2022-08-26T05:25:50.092Z,101074.03
2022-08-26T05:28:16.243Z,101080.47
2022-08-26T05:30:42.269Z,101077.69
2022-08-26T05:33:10.407Z,101079.31
2022-08-26T05:35:37.445Z,101083.75
2022-08-26T05:38:04.380Z,101082.09
2022-08-26T05:40:32.622Z,101084.06
2022-08-26T05:42:59.390Z,101081.28
2022-08-26T05:45:25.157Z,101084.06
2022-08-26T05:47:50.698Z,101086.84
2022-08-26T05:50:20.922Z,101081.28
2022-08-26T05:52:48.774Z,101085.19
2022-08-26T05:55:15.202Z,101091.59
2022-08-26T05:57:42.821Z,101091.28
2022-08-26T06:00:09.391Z,101096.50
2022-08-26T06:02:35.404Z,101093.72
2022-08-26T06:05:01.082Z,101090.94
2022-08-26T06:07:46.789Z,101089.31
2022-08-26T06:10:31.605Z,101097.34
2022-08-26T06:12:58.612Z,101090.44
2022-08-26T06:15:25.119Z,101090.94
2022-08-26T06:17:50.732Z,101090.44
2022-08-26T06:20:16.272Z,101088.50
2022-08-26T06:23:02.791Z,101094.06
2022-08-26T06:25:37.132Z,101094.06
2022-08-26T06:28:04.376Z,101098.00
2022-08-26T06:30:30.294Z,101096.84
2022-08-26T06:32:56.247Z,101098.00
2022-08-26T06:35:23.389Z,101106.34
2022-08-26T06:37:49.555Z,101110.75
2022-08-26T06:40:15.135Z,101107.97
2022-08-26T06:42:41.113Z,101107.38
2022-08-26T06:45:06.948Z,101117.66
2022-08-26T06:47:33.122Z,101110.44
2022-08-26T06:49:59.740Z,101112.09
2022-08-26T06:52:25.315Z,101113.34
2022-08-26T06:54:50.863Z,101115.09
2022-08-26T06:57:16.830Z,101116.66
2022-08-26T06:59:42.424Z,101114.56
2022-08-26T07:02:08.130Z,101122.59
2022-08-26T07:04:34.931Z,101117.84
2022-08-26T07:07:01.387Z,101123.41
2022-08-26T07:09:28.322Z,101121.47
2022-08-26T07:11:55.373Z,101125.91
2022-08-26T07:14:21.231Z,101117.56
2022-08-26T07:16:47.146Z,101123.13
2022-08-26T07:19:12.808Z,101125.91
2022-08-26T07:21:40.638Z,101128.69
2022-08-26T07:24:06.372Z,101133.94
2022-08-26T07:26:31.906Z,101128.38
2022-08-26T07:28:58.487Z,101131.16
2022-08-26T07:31:26.203Z,101137.88
2022-08-26T07:33:51.751Z,101140.00
2022-08-26T07:36:17.826Z,101147.53
2022-08-26T07:38:43.660Z,101145.59
2022-08-26T07:41:09.494Z,101147.25
2022-08-26T07:43:35.171Z,101144.47
2022-08-26T07:46:00.804Z,101142.50
2022-08-26T07:48:26.343Z,101150.53
2022-08-26T07:50:53.107Z,101153.31
2022-08-26T07:53:19.402Z,101156.44
2022-08-26T07:55:45.135Z,101149.72
2022-08-26T07:58:11.029Z,101156.44
2022-08-26T08:00:36.716Z,101158.06
2022-08-26T08:03:03.087Z,101157.97
2022-08-26T08:05:33.603Z,101154.78
2022-08-26T08:08:19.652Z,101154.97
2022-08-26T08:10:48.770Z,101156.63
2022-08-26T08:13:14.518Z,101155.81
2022-08-26T08:15:40.516Z,101156.63
2022-08-26T08:18:10.119Z,101159.41
2022-08-26T08:20:44.694Z,101159.41
2022-08-26T08:23:14.700Z,101160.72
2022-08-26T08:25:40.459Z,101157.94
2022-08-26T08:28:06.078Z,101157.66
2022-08-26T08:30:31.693Z,101164.03
2022-08-26T08:33:02.329Z,101167.13
2022-08-26T08:35:27.916Z,101161.25
2022-08-26T08:37:55.836Z,101168.97
2022-08-26T08:40:24.231Z,101171.75
2022-08-26T08:45:37.681Z,101163.72
2022-08-26T08:48:05.128Z,101173.22
2022-08-26T08:50:33.111Z,101164.88
2022-08-26T08:53:19.530Z,101164.88
2022-08-26T08:55:50.693Z,101158.16
2022-08-26T08:58:17.484Z,101162.06
2022-08-26T09:00:54.649Z,101163.72
2022-08-26T09:03:23.284Z,101162.91
2022-08-26T09:05:50.631Z,101161.75
2022-08-26T09:08:19.810Z,101161.75
2022-08-26T09:10:46.799Z,101169.28
2022-08-26T09:13:13.782Z,101174.53
2022-08-26T09:15:55.599Z,101169.81
2022-08-26T09:18:41.016Z,101165.34
2022-08-26T09:21:12.769Z,101164.25
2022-08-26T09:23:39.222Z,101176.22
2022-08-26T09:26:29.299Z,101171.47
2022-08-26T09:28:57.348Z,101170.63
2022-08-26T09:31:24.345Z,101185.38
2022-08-26T09:34:02.429Z,101177.84
2022-08-26T09:36:37.784Z,101181.13
2022-08-26T09:39:25.110Z,101176.38
2022-08-26T09:42:00.619Z,101180.31
2022-08-26T09:44:26.152Z,101186.69
2022-08-26T09:46:53.648Z,101183.91
2022-08-26T09:49:36.102Z,101181.13
2022-08-26T09:54:43.601Z,101177.84
2022-08-26T09:57:20.400Z,101179.50
2022-08-26T09:59:45.947Z,101178.34
2022-08-26T10:02:31.368Z,101178.66
2022-08-26T10:04:57.275Z,101175.56
2022-08-26T10:07:45.352Z,101174.75
2022-08-26T10:10:14.003Z,101177.53
2022-08-26T10:12:42.337Z,101176.38
2022-08-26T10:15:08.567Z,101176.38
2022-08-26T10:17:36.268Z,101171.66
2022-08-26T10:22:42.600Z,101173.59
2022-08-26T10:25:11.159Z,101171.66
2022-08-26T10:27:56.864Z,101170.50
2022-08-26T10:30:23.591Z,101169.69
2022-08-26T10:32:54.200Z,101167.72
2022-08-26T10:35:19.755Z,101169.16
2022-08-26T10:37:48.421Z,101175.50
2022-08-26T10:40:18.016Z,101175.19
2022-08-26T10:42:47.100Z,101172.78
2022-08-26T10:45:21.348Z,101168.66
2022-08-26T10:47:53.659Z,101152.66
2022-08-26T10:50:19.579Z,101153.19
2022-08-26T10:52:57.636Z,101157.06
2022-08-26T10:55:43.058Z,101154.28
2022-08-26T10:58:26.455Z,101155.09
2022-08-26T11:01:15.013Z,101157.91
2022-08-26T11:03:48.376Z,101153.19
2022-08-26T11:06:19.760Z,101149.53
2022-08-26T11:08:45.973Z,101156.78
2022-08-26T11:11:11.516Z,101160.38
2022-08-26T11:13:57.078Z,101154.81
2022-08-26T11:16:43.421Z,101156.47
2022-08-26T11:19:10.868Z,101151.69
2022-08-26T11:21:42.664Z,101152.03
2022-08-26T11:24:30.879Z,101147.28
2022-08-26T11:26:57.218Z,101149.75
2022-08-26T11:29:42.823Z,101151.69
2022-08-26T11:32:16.457Z,101156.13
2022-08-26T11:34:50.980Z,101148.28
2022-08-26T11:37:17.294Z,101152.72
2022-08-26T11:39:54.437Z,101154.69
2022-08-26T11:42:40.361Z,101148.78
2022-08-26T11:45:27.189Z,101146.34
2022-08-26T11:47:54.679Z,101144.03
2022-08-26T11:50:22.679Z,101146.00
2022-08-26T11:52:50.497Z,101146.00
2022-08-26T11:55:16.423Z,101142.72
2022-08-26T11:57:46.113Z,101145.50
2022-08-26T12:00:22.637Z,101151.91
2022-08-26T12:02:49.248Z,101145.50
2022-08-26T12:05:16.396Z,101147.16
2022-08-26T12:07:42.698Z,101141.91
2022-08-26T12:10:08.456Z,101148.28
2022-08-26T12:12:37.824Z,101152.22
2022-08-26T12:15:04.759Z,101150.25
2022-08-26T12:17:31.040Z,101148.63
2022-08-26T12:19:56.589Z,101146.13
2022-08-26T12:22:23.362Z,101147.78
2022-08-26T12:24:52.071Z,101147.78
2022-08-26T12:27:20.884Z,101149.75
2022-08-26T12:30:04.125Z,101156.97
2022-08-26T12:32:34.188Z,101149.75
2022-08-26T12:35:01.461Z,101149.75
2022-08-26T12:37:27.303Z,101158.09
2022-08-26T12:39:53.607Z,101162.03
2022-08-26T12:44:58.694Z,101165.63
2022-08-26T12:47:39.085Z,101157.28
2022-08-26T12:50:11.935Z,101159.78
2022-08-26T12:52:57.384Z,101162.84
2022-08-26T12:55:25.363Z,101156.47
2022-08-26T12:58:09.869Z,101159.25
2022-08-26T13:00:36.843Z,101164.00
2022-08-26T13:03:02.616Z,101160.06
2022-08-26T13:05:32.338Z,101150.88
2022-08-26T13:08:17.780Z,101147.28
2022-08-26T13:10:44.556Z,101156.13
2022-08-26T13:13:10.307Z,101152.84
2022-08-26T13:15:36.155Z,101158.44
2022-08-26T13:18:02.638Z,101152.03
2022-08-26T13:20:28.251Z,101153.66
2022-08-26T13:22:58.590Z,101143.28
2022-08-26T13:25:24.480Z,101152.91
2022-08-26T13:27:50.021Z,101150.63
2022-08-26T13:30:15.576Z,101154.09
2022-08-26T13:32:41.353Z,101151.84
2022-08-26T13:35:08.461Z,101144.81
2022-08-26T13:37:34.629Z,101147.59
2022-08-26T13:40:01.931Z,101148.72
2022-08-26T13:42:27.617Z,101139.25
2022-08-26T13:44:57.048Z,101143.66
2022-08-26T13:47:24.072Z,101138.91
2022-08-26T13:49:49.620Z,101143.34
2022-08-26T13:52:15.813Z,101140.56
2022-08-26T13:54:41.365Z,101137.78
2022-08-26T13:57:06.907Z,101133.03
2022-08-26T13:59:32.467Z,101136.94
2022-08-26T14:01:58.041Z,101133.03
2022-08-26T14:04:27.255Z,101133.03
2022-08-26T14:06:53.084Z,101124.66
2022-08-26T14:09:18.644Z,101131.06
2022-08-26T14:11:54.231Z,101139.13
2022-08-26T14:14:20.733Z,101139.41
2022-08-26T14:16:59.508Z,101137.16
2022-08-26T14:19:26.044Z,101130.75
2022-08-26T14:21:51.956Z,101123.22
2022-08-26T14:24:17.496Z,101116.81
2022-08-26T14:26:43.036Z,101114.88
2022-08-26T14:29:09.413Z,101118.47
2022-08-26T14:31:37.021Z,101120.09
2022-08-26T14:34:04.040Z,101117.31
2022-08-26T14:36:31.347Z,101122.06
2022-08-26T14:39:00.965Z,101129.63
2022-08-26T14:41:27.291Z,101122.91
2022-08-26T14:43:59.123Z,101118.47
2022-08-26T14:46:27.905Z,101120.44
2022-08-26T14:48:54.568Z,101112.06
2022-08-26T14:51:26.496Z,101112.06
2022-08-26T14:54:11.998Z,101116.50
2022-08-26T14:56:44.175Z,101122.91
2022-08-26T14:59:09.880Z,101117.03
2022-08-26T15:01:35.872Z,101128.16
2022-08-26T15:04:01.867Z,101129.28
2022-08-26T15:06:28.144Z,101122.06
2022-08-26T15:08:53.695Z,101120.09
2022-08-26T15:11:19.236Z,101132.91
2022-08-26T15:13:44.927Z,101125.69
2022-08-26T15:16:10.508Z,101134.84
2022-08-26T15:18:36.175Z,101133.22
2022-08-26T15:21:02.905Z,101128.47
2022-08-26T15:23:28.443Z,101120.09
2022-08-26T15:25:54.408Z,101119.28
2022-08-26T15:28:19.944Z,101108.97
2022-08-26T15:30:47.951Z,101115.69
2022-08-26T15:33:15.071Z,101122.91
2022-08-26T15:35:41.087Z,101110.94
2022-08-26T15:38:08.797Z,101117.66
2022-08-26T15:40:35.143Z,101117.66
2022-08-26T15:43:17.684Z,101115.19
2022-08-26T15:45:44.307Z,101114.88
2022-08-26T15:48:10.160Z,101112.41
2022-08-26T15:50:35.713Z,101111.25
2022-08-26T15:53:01.255Z,101112.41
2022-08-26T15:55:26.801Z,101108.47
2022-08-26T15:57:53.921Z,101102.06
2022-08-26T16:00:20.461Z,101107.66
2022-08-26T16:02:45.994Z,101106.50
2022-08-26T16:05:12.316Z,101103.19
2022-08-26T16:07:37.973Z,101104.03
2022-08-26T16:10:03.584Z,101109.63
2022-08-26T16:12:29.125Z,101108.75
2022-08-26T16:14:54.672Z,101111.25
2022-08-26T16:17:20.217Z,101103.19
2022-08-26T16:19:45.999Z,101107.94
2022-08-26T16:22:11.536Z,101102.38
2022-08-26T16:24:37.083Z,101112.41
2022-08-26T16:27:02.644Z,101112.69
2022-08-26T16:29:28.222Z,101110.72
2022-08-26T16:31:53.891Z,101109.91
2022-08-26T16:34:19.891Z,101121.06
2022-08-26T16:36:45.531Z,101115.47
2022-08-26T16:39:11.543Z,101123.03
2022-08-26T16:41:37.075Z,101116.63
2022-08-26T16:44:02.963Z,101125.81
2022-08-26T16:46:28.532Z,101126.63
2022-08-26T16:48:54.797Z,101126.63
2022-08-26T16:51:22.132Z,101118.59
2022-08-26T16:53:47.991Z,101128.59
2022-08-26T16:56:13.988Z,101125.00
2022-08-26T16:58:39.737Z,101133.34
2022-08-26T17:01:05.756Z,101136.94
2022-08-26T17:03:32.331Z,101131.72
2022-08-26T17:05:57.924Z,101133.69
2022-08-26T17:08:28.481Z,101137.28
2022-08-26T17:10:54.953Z,101141.19
2022-08-26T17:13:29.697Z,101148.44
2022-08-26T17:16:01.169Z,101154.81
2022-08-26T17:18:29.713Z,101147.59
2022-08-26T17:20:55.368Z,101143.97
2022-08-26T17:23:21.360Z,101147.59
2022-08-26T17:25:47.143Z,101152.31
2022-08-26T17:28:13.551Z,101155.97
2022-08-26T17:30:39.520Z,101163.47
2022-08-26T17:33:10.693Z,101162.66
2022-08-26T17:35:36.713Z,101166.25
2022-08-26T17:38:02.328Z,101158.22
2022-08-26T17:40:29.709Z,101161.84
2022-08-26T17:42:55.523Z,101170.19
2022-08-26T17:45:21.185Z,101166.59
2022-08-26T17:47:46.732Z,101163.78
2022-08-26T17:50:13.549Z,101167.72
2022-08-26T17:52:39.297Z,101167.41
2022-08-26T17:55:05.660Z,101166.59
2022-08-26T17:57:31.401Z,101167.72
2022-08-26T18:00:05.744Z,101163.31
2022-08-26T18:05:01.780Z,101159.38
2022-08-26T18:07:27.314Z,101167.72
2022-08-26T18:09:52.859Z,101163.31
2022-08-26T18:12:18.400Z,101166.91
2022-08-26T18:14:43.951Z,101164.13
2022-08-26T18:17:09.883Z,101164.13
2022-08-26T18:19:35.431Z,101161.34
2022-08-26T18:22:01.015Z,101172.47
2022-08-26T18:24:29.480Z,101168.03
2022-08-26T18:26:55.024Z,101173.59
2022-08-26T18:29:20.915Z,101177.22
2022-08-26T18:31:47.575Z,101175.56
2022-08-26T18:34:14.641Z,101183.91
2022-08-26T18:36:40.523Z,101181.13
2022-08-26T18:39:06.520Z,101177.22
2022-08-26T18:41:32.867Z,101187.53
2022-08-26T18:43:58.420Z,101186.69
2022-08-26T18:46:24.633Z,101175.56
2022-08-26T18:48:51.292Z,101180.31
2022-08-26T18:51:18.684Z,101180.31
2022-08-26T18:53:44.228Z,101182.28
2022-08-26T18:56:09.803Z,101189.50
2022-08-26T18:58:35.352Z,101190.63
2022-08-26T19:01:00.963Z,101195.38
2022-08-26T19:03:27.851Z,101198.16
2022-08-26T19:05:53.700Z,101197.03
2022-08-26T19:08:19.300Z,101206.53
2022-08-26T19:10:44.838Z,101199.00
2022-08-26T19:13:10.931Z,101194.56
2022-08-26T19:15:38.272Z,101195.72
2022-08-26T19:18:03.837Z,101188.16
2022-08-26T19:20:29.376Z,101189.00
2022-08-26T19:22:57.427Z,101190.13
2022-08-26T19:25:25.540Z,101190.13
2022-08-26T19:27:51.085Z,101192.91
2022-08-26T19:30:16.628Z,101201.28
2022-08-26T19:32:42.169Z,101202.09
2022-08-26T19:35:07.861Z,101207.97
2022-08-26T19:37:33.632Z,101209.63
2022-08-26T19:39:59.257Z,101204.06
2022-08-26T19:42:24.831Z,101202.09
2022-08-26T19:45:15.697Z,101196.00
2022-08-26T19:47:52.056Z,101206.03
2022-08-26T19:50:17.602Z,101201.28
2022-08-26T19:52:43.297Z,101207.97
2022-08-26T19:55:09.598Z,101200.47
2022-08-26T19:57:35.483Z,101201.56
2022-08-26T20:00:01.056Z,101202.41
2022-08-26T20:02:26.908Z,101205.19
2022-08-26T20:04:52.476Z,101208.28
2022-08-26T20:07:19.057Z,101210.75
2022-08-26T20:09:44.684Z,101203.53
2022-08-26T20:12:10.705Z,101206.31
2022-08-26T20:14:36.247Z,101200.75
2022-08-26T20:17:02.197Z,101189.59
2022-08-26T20:19:47.677Z,101186.00
2022-08-26T20:22:13.216Z,101198.78
2022-08-26T20:24:38.752Z,101189.59
2022-08-26T20:27:07.529Z,101197.97
2022-08-26T20:29:33.951Z,101202.72
2022-08-26T20:31:59.545Z,101202.72
2022-08-26T20:34:25.457Z,101207.47
2022-08-26T20:36:51.336Z,101208.28
2022-08-26T20:39:17.254Z,101206.66
2022-08-26T20:41:44.567Z,101208.63
2022-08-26T20:44:10.333Z,101215.00
2022-08-26T20:46:36.222Z,101228.13
2022-08-26T20:49:02.057Z,101208.63
2022-08-26T20:51:31.479Z,101222.22
2022-08-26T20:53:57.026Z,101225.31
2022-08-26T20:56:24.110Z,101226.97
2022-08-26T20:58:50.179Z,101232.88
2022-08-26T21:01:17.769Z,101235.66
2022-08-26T21:03:43.497Z,101235.66
2022-08-26T21:06:09.185Z,101231.72
2022-08-26T21:08:34.771Z,101230.91
2022-08-26T21:11:00.401Z,101235.66
2022-08-26T21:13:25.945Z,101230.91
2022-08-26T21:15:54.769Z,101239.53
2022-08-26T21:18:20.316Z,101235.66
2022-08-26T21:20:45.855Z,101234.78
2022-08-26T21:23:11.720Z,101231.19
2022-08-26T21:25:37.260Z,101231.19
2022-08-26T21:28:02.908Z,101233.97
2022-08-26T21:30:28.458Z,101230.06
2022-08-26T21:32:54.004Z,101231.19
2022-08-26T21:35:19.545Z,101228.41
2022-08-26T21:37:45.100Z,101227.59
2022-08-26T21:40:10.798Z,101232.34
2022-08-26T21:42:36.343Z,101239.53
2022-08-26T21:45:02.029Z,101231.19
2022-08-26T21:47:27.622Z,101233.16
2022-08-26T21:49:53.160Z,101235.13
2022-08-26T21:52:18.823Z,101235.13
2022-08-26T21:54:49.387Z,101242.66
2022-08-26T21:57:15.450Z,101242.66
2022-08-26T21:59:40.995Z,101244.63
2022-08-26T22:02:06.604Z,101253.28
2022-08-26T22:04:34.703Z,101251.00
2022-08-26T22:07:00.244Z,101243.47
2022-08-26T22:09:26.551Z,101239.03
2022-08-26T22:11:52.147Z,101239.88
2022-08-26T22:14:18.198Z,101251.34
2022-08-26T22:16:48.978Z,101243.81
2022-08-26T22:19:17.031Z,101247.41
2022-08-26T22:21:44.401Z,101248.56
2022-08-26T22:24:11.294Z,101259.38
2022-08-26T22:26:37.163Z,101253.28
2022-08-26T22:29:02.838Z,101251.00
2022-08-26T22:31:37.975Z,101254.13
2022-08-26T22:34:05.990Z,101259.69
2022-08-26T22:36:31.528Z,101261.66
2022-08-26T22:38:57.963Z,101256.91
2022-08-26T22:41:23.710Z,101249.66
2022-08-26T22:43:49.252Z,101250.50
2022-08-26T22:46:18.522Z,101246.88
2022-08-26T22:48:44.207Z,101246.06
2022-08-26T22:51:09.742Z,101256.91
2022-08-26T22:53:36.615Z,101254.41
2022-08-26T22:56:07.821Z,101246.88
2022-08-26T22:58:33.385Z,101258.00
2022-08-26T23:00:59.363Z,101254.41
2022-08-26T23:03:25.153Z,101251.63
2022-08-26T23:05:50.800Z,101252.44
2022-08-26T23:08:19.228Z,101264.44
2022-08-26T23:10:45.325Z,101263.59
2022-08-26T23:13:11.156Z,101260.81
2022-08-26T23:15:36.928Z,101253.59
2022-08-26T23:18:02.812Z,101251.63
2022-08-26T23:20:28.356Z,101261.94
2022-08-26T23:22:54.147Z,101267.50
2022-08-26T23:25:19.797Z,101265.88
2022-08-26T23:27:46.063Z,101260.31
2022-08-26T23:30:13.786Z,101269.47
2022-08-26T23:32:39.319Z,101263.09
2022-08-26T23:35:05.064Z,101260.31
2022-08-26T23:37:32.637Z,101261.13
2022-08-26T23:39:58.596Z,101262.28
2022-08-26T23:42:24.165Z,101259.47
2022-08-26T23:44:49.704Z,101259.47
2022-08-26T23:47:15.793Z,101265.88
2022-08-26T23:49:41.330Z,101259.47
2022-08-26T23:52:26.818Z,101251.13
2022-08-26T23:54:52.416Z,101254.72
2022-08-26T23:57:18.645Z,101249.97
2022-08-26T23:59:44.185Z,101253.09
